createdAt,value
2018-10-16T00:00:27.932Z,31.40
2018-10-16T00:01:27.904Z,28.30
2018-10-16T00:02:27.877Z,31.70
2018-10-16T00:03:27.838Z,39.50
2018-10-16T00:04:27.809Z,35.00
2018-10-16T00:05:27.774Z,24.70
2018-10-16T00:06:27.738Z,35.30
2018-10-16T00:07:27.706Z,28.30
2018-10-16T00:08:27.679Z,28.60
2018-10-16T00:09:27.652Z,30.20
2018-10-16T00:10:27.615Z,29.40
2018-10-16T00:11:27.578Z,31.00
2018-10-16T00:12:27.545Z,31.40
2018-10-16T00:13:27.516Z,39.80
2018-10-16T00:14:27.490Z,34.60
2018-10-16T00:15:27.453Z,26.10
2018-10-16T00:16:27.420Z,33.20
2018-10-16T00:17:27.388Z,34.40
2018-10-16T00:18:27.359Z,29.70
2018-10-16T00:19:27.342Z,29.80
2018-10-16T00:20:27.291Z,39.30
2018-10-16T00:21:27.265Z,33.80
2018-10-16T00:22:27.228Z,29.60
2018-10-16T00:23:27.198Z,27.20
2018-10-16T00:24:27.167Z,29.20
2018-10-16T00:25:27.141Z,29.20
2018-10-16T00:26:27.104Z,31.80
2018-10-16T00:27:27.068Z,31.00
2018-10-16T00:28:27.037Z,30.10
2018-10-16T00:29:27.005Z,31.00
2018-10-16T00:30:27.001Z,31.50
2018-10-16T00:31:26.942Z,29.50
2018-10-16T00:32:26.970Z,27.50
2018-10-16T00:33:26.878Z,30.50
2018-10-16T00:34:26.847Z,31.30
2018-10-16T00:35:26.906Z,36.60
2018-10-16T00:36:26.784Z,33.40
2018-10-16T00:37:26.756Z,27.90
2018-10-16T00:38:26.720Z,30.00
2018-10-16T00:39:26.691Z,40.20
2018-10-16T00:40:26.664Z,37.10
2018-10-16T00:41:26.623Z,32.50
2018-10-16T00:42:26.597Z,34.30
2018-10-16T00:43:26.562Z,27.80
2018-10-16T00:44:26.529Z,27.00
2018-10-16T00:45:26.506Z,31.80
2018-10-16T00:46:26.467Z,29.20
2018-10-16T00:47:26.436Z,26.40
2018-10-16T00:48:26.400Z,30.40
2018-10-16T00:49:26.369Z,26.30
2018-10-16T00:50:26.347Z,28.70
2018-10-16T00:51:26.309Z,36.20
2018-10-16T00:52:26.280Z,26.50
2018-10-16T00:53:26.247Z,28.60
2018-10-16T00:54:26.212Z,26.90
2018-10-16T00:55:26.198Z,31.10
2018-10-16T00:56:26.147Z,31.00
2018-10-16T00:57:26.116Z,36.30
2018-10-16T00:58:26.085Z,30.60
2018-10-16T00:59:26.059Z,36.60
2018-10-16T01:00:26.021Z,26.00
2018-10-16T01:01:25.992Z,29.80
2018-10-16T01:02:25.959Z,27.40
2018-10-16T01:03:25.923Z,26.70
2018-10-16T01:04:25.893Z,31.10
2018-10-16T01:05:25.864Z,33.40
2018-10-16T01:06:25.842Z,32.90
2018-10-16T01:07:25.799Z,34.00
2018-10-16T01:08:25.768Z,26.30
2018-10-16T01:09:25.742Z,31.10
2018-10-16T01:10:25.704Z,31.70
2018-10-16T01:11:25.685Z,29.60
2018-10-16T01:12:25.640Z,32.60
2018-10-16T01:13:25.608Z,29.30
2018-10-16T01:14:25.579Z,32.70
2018-10-16T01:15:25.560Z,30.10
2018-10-16T01:16:25.524Z,27.90
2018-10-16T01:17:25.485Z,35.70
2018-10-16T01:18:25.458Z,30.40
2018-10-16T01:19:25.420Z,33.10
2018-10-16T01:20:25.387Z,34.80
2018-10-16T01:21:25.365Z,32.60
2018-10-16T01:22:25.331Z,30.30
2018-10-16T01:23:25.293Z,30.00
2018-10-16T01:24:25.263Z,25.30
2018-10-16T01:25:25.238Z,32.40
2018-10-16T01:26:25.212Z,39.10
2018-10-16T01:27:25.168Z,33.30
2018-10-16T01:28:25.135Z,31.30
2018-10-16T01:29:25.106Z,33.00
2018-10-16T01:30:25.072Z,27.80
2018-10-16T01:31:25.053Z,30.10
2018-10-16T01:32:25.011Z,35.10
2018-10-16T01:33:24.977Z,36.50
2018-10-16T01:34:24.950Z,26.20
2018-10-16T01:35:24.918Z,31.90
2018-10-16T01:36:24.904Z,34.10
2018-10-16T01:37:24.854Z,34.00
2018-10-16T01:38:24.823Z,33.90
2018-10-16T01:39:24.789Z,30.00
2018-10-16T01:40:24.762Z,32.70
2018-10-16T01:41:24.728Z,32.70
2018-10-16T01:42:24.704Z,27.90
2018-10-16T01:43:24.665Z,29.90
2018-10-16T01:44:24.632Z,36.10
2018-10-16T01:45:24.606Z,28.70
2018-10-16T01:46:24.573Z,31.90
2018-10-16T01:47:24.551Z,31.40
2018-10-16T01:48:24.511Z,28.30
2018-10-16T01:49:24.481Z,26.20
2018-10-16T01:50:24.455Z,29.70
2018-10-16T01:51:24.416Z,28.00
2018-10-16T01:52:24.390Z,28.40
2018-10-16T01:53:24.353Z,25.70
2018-10-16T01:54:24.319Z,26.00
2018-10-16T01:55:24.288Z,27.30
2018-10-16T01:56:24.312Z,33.60
2018-10-16T01:57:24.240Z,29.90
2018-10-16T01:58:24.198Z,33.60
2018-10-16T01:59:24.161Z,30.80
2018-10-16T02:00:25.047Z,34.20
2018-10-16T02:01:24.101Z,35.00
2018-10-16T02:02:24.118Z,30.90
2018-10-16T02:03:24.045Z,34.50
2018-10-16T02:04:24.029Z,30.20
2018-10-16T02:05:23.974Z,36.50
2018-10-16T02:06:23.943Z,29.60
2018-10-16T02:07:23.913Z,30.10
2018-10-16T02:08:23.887Z,30.00
2018-10-16T02:09:23.853Z,31.10
2018-10-16T02:10:23.819Z,30.80
2018-10-16T02:11:23.787Z,34.80
2018-10-16T02:12:23.759Z,28.00
2018-10-16T02:13:23.744Z,33.30
2018-10-16T02:14:23.693Z,33.90
2018-10-16T02:15:23.662Z,31.40
2018-10-16T02:16:23.632Z,34.00
2018-10-16T02:17:23.601Z,32.90
2018-10-16T02:18:23.578Z,30.50
2018-10-16T02:19:23.536Z,35.60
2018-10-16T02:20:23.507Z,33.30
2018-10-16T02:21:23.477Z,36.20
2018-10-16T02:22:23.444Z,35.30
2018-10-16T02:23:23.428Z,31.30
2018-10-16T02:24:23.373Z,33.20
2018-10-16T02:25:23.349Z,32.40
2018-10-16T02:26:23.317Z,35.00
2018-10-16T02:27:23.287Z,31.20
2018-10-16T02:28:23.267Z,37.90
2018-10-16T02:29:23.224Z,31.60
2018-10-16T02:30:23.196Z,36.40
2018-10-16T02:31:23.161Z,34.10
2018-10-16T02:32:23.136Z,30.20
2018-10-16T02:33:23.112Z,38.30
2018-10-16T02:34:23.066Z,36.10
2018-10-16T02:35:23.041Z,35.90
2018-10-16T02:36:23.006Z,32.20
2018-10-16T02:37:22.976Z,29.60
2018-10-16T02:38:22.948Z,33.30
2018-10-16T02:39:22.913Z,33.20
2018-10-16T02:40:22.892Z,33.60
2018-10-16T02:41:22.850Z,34.90
2018-10-16T02:42:22.817Z,29.70
2018-10-16T02:43:22.778Z,38.40
2018-10-16T02:44:22.764Z,29.80
2018-10-16T02:45:22.722Z,36.10
2018-10-16T02:46:22.691Z,32.30
2018-10-16T02:47:22.657Z,37.60
2018-10-16T02:48:22.627Z,35.50
2018-10-16T02:49:22.605Z,28.20
2018-10-16T02:50:22.566Z,31.70
2018-10-16T02:51:22.538Z,34.60
2018-10-16T02:52:22.502Z,32.10
2018-10-16T02:53:22.471Z,30.70
2018-10-16T02:54:22.456Z,35.00
2018-10-16T02:55:22.408Z,30.10
2018-10-16T02:56:22.382Z,39.60
2018-10-16T02:57:22.343Z,40.60
2018-10-16T02:58:22.315Z,40.60
2018-10-16T02:59:22.291Z,31.70
2018-10-16T03:00:22.254Z,34.00
2018-10-16T03:01:22.219Z,41.30
2018-10-16T03:02:22.190Z,39.80
2018-10-16T03:03:22.157Z,35.00
2018-10-16T03:04:22.136Z,49.30
2018-10-16T03:05:22.097Z,33.50
2018-10-16T03:06:22.067Z,37.30
2018-10-16T03:07:22.031Z,41.00
2018-10-16T03:08:22.004Z,39.00
2018-10-16T03:09:21.991Z,32.60
2018-10-16T03:10:21.943Z,38.00
2018-10-16T03:11:21.907Z,35.50
2018-10-16T03:12:21.878Z,35.10
2018-10-16T03:13:21.846Z,36.90
2018-10-16T03:14:21.814Z,41.30
2018-10-16T03:15:21.793Z,33.20
2018-10-16T03:16:21.755Z,32.70
2018-10-16T03:17:21.716Z,39.70
2018-10-16T03:18:21.689Z,36.20
2018-10-16T03:19:21.658Z,43.80
2018-10-16T03:20:21.682Z,37.20
2018-10-16T03:21:21.596Z,35.70
2018-10-16T03:22:21.562Z,37.30
2018-10-16T03:23:21.535Z,33.30
2018-10-16T03:24:21.503Z,38.20
2018-10-16T03:25:21.476Z,35.00
2018-10-16T03:26:21.436Z,39.20
2018-10-16T03:27:21.406Z,34.30
2018-10-16T03:28:21.387Z,31.20
2018-10-16T03:29:21.362Z,33.50
2018-10-16T03:30:21.343Z,28.90
2018-10-16T03:31:21.280Z,35.50
2018-10-16T03:32:21.251Z,30.00
2018-10-16T03:33:21.215Z,37.00
2018-10-16T03:34:21.185Z,37.20
2018-10-16T03:35:21.168Z,38.40
2018-10-16T03:36:21.125Z,37.00
2018-10-16T03:37:21.091Z,38.60
2018-10-16T03:38:21.065Z,34.10
2018-10-16T03:39:21.030Z,37.20
2018-10-16T03:40:21.015Z,38.90
2018-10-16T03:41:20.964Z,32.60
2018-10-16T03:42:20.935Z,32.10
2018-10-16T03:43:20.901Z,38.20
2018-10-16T03:44:20.872Z,32.10
2018-10-16T03:45:20.860Z,40.00
2018-10-16T03:46:20.811Z,35.30
2018-10-16T03:47:20.778Z,32.90
2018-10-16T03:48:20.741Z,42.00
2018-10-16T03:49:20.721Z,39.50
2018-10-16T03:50:20.686Z,32.60
2018-10-16T03:51:20.660Z,35.70
2018-10-16T03:52:20.621Z,40.60
2018-10-16T03:53:20.590Z,32.70
2018-10-16T03:54:20.558Z,32.30
2018-10-16T03:55:20.528Z,38.10
2018-10-16T03:56:20.504Z,33.30
2018-10-16T03:57:20.541Z,37.90
2018-10-16T03:58:20.435Z,40.80
2018-10-16T03:59:20.402Z,34.80
2018-10-16T04:00:20.373Z,37.90
2018-10-16T04:01:20.353Z,36.90
2018-10-16T04:02:20.305Z,33.90
2018-10-16T04:03:20.279Z,34.10
2018-10-16T04:04:20.247Z,34.40
2018-10-16T04:05:20.217Z,39.30
2018-10-16T04:06:20.189Z,36.50
2018-10-16T04:07:20.150Z,38.00
2018-10-16T04:08:20.118Z,34.70
2018-10-16T04:09:20.091Z,34.80
2018-10-16T04:10:20.053Z,30.40
2018-10-16T04:11:20.032Z,37.20
2018-10-16T04:12:19.993Z,40.00
2018-10-16T04:13:19.965Z,37.60
2018-10-16T04:14:19.931Z,39.20
2018-10-16T04:15:19.901Z,31.70
2018-10-16T04:16:19.882Z,36.50
2018-10-16T04:17:19.844Z,39.60
2018-10-16T04:18:19.805Z,35.00
2018-10-16T04:19:19.771Z,38.40
2018-10-16T04:20:19.746Z,39.00
2018-10-16T04:21:19.708Z,35.30
2018-10-16T04:22:19.707Z,39.20
2018-10-16T04:23:19.647Z,41.00
2018-10-16T04:24:19.626Z,42.20
2018-10-16T04:25:19.587Z,40.30
2018-10-16T04:26:19.555Z,37.60
2018-10-16T04:27:19.544Z,36.00
2018-10-16T04:28:19.492Z,40.50
2018-10-16T04:29:19.517Z,39.70
2018-10-16T04:30:19.427Z,36.30
2018-10-16T04:31:19.395Z,37.90
2018-10-16T04:32:19.371Z,52.10
2018-10-16T04:33:19.335Z,39.80
2018-10-16T04:34:19.306Z,41.30
2018-10-16T04:35:19.272Z,44.60
2018-10-16T04:36:19.236Z,49.20
2018-10-16T04:37:19.214Z,38.90
2018-10-16T04:38:19.174Z,36.90
2018-10-16T04:39:19.150Z,39.30
2018-10-16T04:40:19.120Z,42.90
2018-10-16T04:41:19.092Z,38.50
2018-10-16T04:42:19.070Z,36.80
2018-10-16T04:43:19.023Z,42.80
2018-10-16T04:44:18.991Z,33.10
2018-10-16T04:45:18.956Z,41.00
2018-10-16T04:46:18.922Z,44.90
2018-10-16T04:47:18.894Z,36.20
2018-10-16T04:48:18.878Z,37.80
2018-10-16T04:49:18.827Z,45.70
2018-10-16T04:50:18.796Z,38.30
2018-10-16T04:51:18.766Z,36.90
2018-10-16T04:52:18.734Z,33.00
2018-10-16T04:53:18.719Z,39.40
2018-10-16T04:54:18.671Z,44.60
2018-10-16T04:55:18.652Z,40.20
2018-10-16T04:56:18.633Z,48.70
2018-10-16T04:57:18.576Z,42.30
2018-10-16T04:58:18.556Z,37.60
2018-10-16T04:59:18.512Z,40.90
2018-10-16T05:00:18.479Z,46.10
2018-10-16T05:01:18.662Z,38.60
2018-10-16T05:02:18.425Z,35.30
2018-10-16T05:03:18.399Z,33.60
2018-10-16T05:04:18.468Z,35.70
2018-10-16T05:05:18.325Z,38.10
2018-10-16T05:06:18.299Z,35.90
2018-10-16T05:07:18.259Z,39.50
2018-10-16T05:08:18.240Z,43.20
2018-10-16T05:09:18.197Z,46.00
2018-10-16T05:10:18.172Z,38.80
2018-10-16T05:11:18.140Z,36.90
2018-10-16T05:12:18.106Z,37.90
2018-10-16T05:13:18.213Z,42.80
2018-10-16T05:14:18.043Z,37.70
2018-10-16T05:15:18.006Z,45.50
2018-10-16T05:16:18.063Z,44.30
2018-10-16T05:17:17.994Z,40.00
2018-10-16T05:18:17.914Z,37.70
2018-10-16T05:19:17.963Z,39.10
2018-10-16T05:20:17.850Z,38.10
2018-10-16T05:21:17.825Z,40.60
2018-10-16T05:22:17.786Z,39.70
2018-10-16T05:23:17.754Z,51.60
2018-10-16T05:24:17.731Z,47.90
2018-10-16T05:25:17.691Z,39.90
2018-10-16T05:26:17.663Z,39.70
2018-10-16T05:27:17.641Z,36.20
2018-10-16T05:28:17.599Z,43.90
2018-10-16T05:29:17.578Z,40.30
2018-10-16T05:30:17.533Z,40.00
2018-10-16T05:31:17.689Z,38.00
2018-10-16T05:32:17.473Z,39.30
2018-10-16T05:33:17.439Z,42.30
2018-10-16T05:34:17.416Z,37.20
2018-10-16T05:35:17.377Z,47.00
2018-10-16T05:36:17.348Z,37.20
2018-10-16T05:37:17.316Z,46.00
2018-10-16T05:38:17.290Z,41.90
2018-10-16T05:39:17.327Z,45.50
2018-10-16T05:40:17.217Z,41.80
2018-10-16T05:41:17.191Z,39.30
2018-10-16T05:42:17.158Z,40.20
2018-10-16T05:43:17.125Z,43.40
2018-10-16T05:44:17.112Z,38.40
2018-10-16T05:45:17.066Z,46.30
2018-10-16T05:46:17.030Z,41.50
2018-10-16T05:47:16.998Z,45.60
2018-10-16T05:48:16.965Z,38.10
2018-10-16T05:49:16.953Z,48.60
2018-10-16T05:50:16.902Z,42.60
2018-10-16T05:51:16.871Z,45.10
2018-10-16T05:52:16.843Z,44.70
2018-10-16T05:53:16.862Z,48.80
2018-10-16T05:54:16.798Z,38.40
2018-10-16T05:55:16.751Z,46.20
2018-10-16T05:56:16.711Z,46.90
2018-10-16T05:57:16.682Z,43.60
2018-10-16T05:58:16.646Z,41.60
2018-10-16T05:59:16.615Z,50.50
2018-10-16T06:00:16.597Z,38.50
2018-10-16T06:01:16.551Z,45.20
2018-10-16T06:02:16.529Z,45.90
2018-10-16T06:03:16.493Z,41.30
2018-10-16T06:04:16.457Z,37.40
2018-10-16T06:05:16.443Z,49.10
2018-10-16T06:06:16.391Z,44.10
2018-10-16T06:07:16.361Z,58.40
2018-10-16T06:08:16.330Z,48.40
2018-10-16T06:09:16.302Z,51.30
2018-10-16T06:10:16.277Z,44.40
2018-10-16T06:11:16.236Z,45.10
2018-10-16T06:12:16.248Z,48.50
2018-10-16T06:13:16.177Z,42.50
2018-10-16T06:14:16.146Z,45.00
2018-10-16T06:15:16.126Z,57.30
2018-10-16T06:16:16.076Z,44.90
2018-10-16T06:17:16.043Z,44.00
2018-10-16T06:18:16.018Z,54.80
2018-10-16T06:19:15.983Z,50.90
2018-10-16T06:20:15.954Z,56.30
2018-10-16T06:21:15.937Z,46.50
2018-10-16T06:22:15.886Z,52.70
2018-10-16T06:23:15.853Z,57.40
2018-10-16T06:24:15.841Z,46.90
2018-10-16T06:25:15.791Z,46.50
2018-10-16T06:26:15.815Z,52.10
2018-10-16T06:27:15.728Z,50.50
2018-10-16T06:28:15.704Z,55.50
2018-10-16T06:29:15.667Z,54.40
2018-10-16T06:30:15.655Z,59.20
2018-10-16T06:31:15.615Z,67.50
2018-10-16T06:32:15.572Z,58.30
2018-10-16T06:33:15.543Z,47.00
2018-10-16T06:34:15.506Z,49.60
2018-10-16T06:35:15.474Z,48.00
2018-10-16T06:36:15.448Z,51.80
2018-10-16T06:37:15.412Z,50.70
2018-10-16T06:38:15.379Z,52.30
2018-10-16T06:39:15.350Z,49.80
2018-10-16T06:40:15.316Z,46.00
2018-10-16T06:41:15.373Z,53.70
2018-10-16T06:42:15.249Z,52.10
2018-10-16T06:43:15.216Z,53.40
2018-10-16T06:44:15.186Z,50.00
2018-10-16T06:45:15.154Z,48.50
2018-10-16T06:46:15.133Z,55.00
2018-10-16T06:47:15.187Z,48.80
2018-10-16T06:48:15.335Z,50.00
2018-10-16T06:49:15.023Z,47.30
2018-10-16T06:50:14.995Z,49.60
2018-10-16T06:51:14.976Z,51.00
2018-10-16T06:52:14.929Z,49.50
2018-10-16T06:53:14.912Z,55.60
2018-10-16T06:54:14.866Z,48.70
2018-10-16T06:55:14.946Z,56.80
2018-10-16T06:56:14.825Z,55.10
2018-10-16T06:57:14.770Z,51.80
2018-10-16T06:58:14.739Z,55.40
2018-10-16T06:59:14.704Z,51.70
2018-10-16T07:00:14.729Z,53.90
2018-10-16T07:01:14.643Z,49.70
2018-10-16T07:02:14.616Z,53.30
2018-10-16T07:03:14.577Z,57.80
2018-10-16T07:04:14.546Z,48.60
2018-10-16T07:05:14.516Z,51.40
2018-10-16T07:06:14.486Z,54.10
2018-10-16T07:07:14.625Z,46.10
2018-10-16T07:08:14.426Z,60.60
2018-10-16T07:09:14.384Z,58.80
2018-10-16T07:10:14.358Z,56.30
2018-10-16T07:11:14.321Z,52.50
2018-10-16T07:12:14.313Z,63.60
2018-10-16T07:13:14.264Z,62.40
2018-10-16T07:14:14.224Z,55.00
2018-10-16T07:15:14.197Z,62.00
2018-10-16T07:16:14.161Z,76.80
2018-10-16T07:17:14.129Z,97.00
2018-10-16T07:18:14.106Z,71.10
2018-10-16T07:19:14.065Z,69.60
2018-10-16T07:20:14.083Z,69.10
2018-10-16T07:21:14.023Z,61.50
2018-10-16T07:22:13.974Z,64.70
2018-10-16T07:23:13.953Z,69.10
2018-10-16T07:24:13.904Z,66.70
2018-10-16T07:25:13.874Z,46.90
2018-10-16T07:26:13.906Z,61.80
2018-10-16T07:27:13.812Z,59.10
2018-10-16T07:28:13.789Z,60.70
2018-10-16T07:29:13.747Z,81.20
2018-10-16T07:30:13.755Z,54.60
2018-10-16T07:31:13.683Z,48.50
2018-10-16T07:32:13.650Z,55.50
2018-10-16T07:33:13.630Z,50.60
2018-10-16T07:34:13.585Z,53.10
2018-10-16T07:35:13.556Z,58.20
2018-10-16T07:36:13.523Z,46.50
2018-10-16T07:37:13.494Z,53.10
2018-10-16T07:38:13.705Z,51.60
2018-10-16T07:39:13.425Z,48.80
2018-10-16T07:40:13.395Z,49.80
2018-10-16T07:41:13.365Z,55.60
2018-10-16T07:42:13.338Z,53.70
2018-10-16T07:43:13.312Z,50.70
2018-10-16T07:44:13.267Z,53.90
2018-10-16T07:45:13.233Z,59.60
2018-10-16T07:46:13.204Z,53.40
2018-10-16T07:47:13.171Z,63.10
2018-10-16T07:48:13.193Z,53.60
2018-10-16T07:49:13.119Z,57.30
2018-10-16T07:50:13.080Z,48.20
2018-10-16T07:51:13.045Z,64.20
2018-10-16T07:52:13.015Z,50.00
2018-10-16T07:53:12.984Z,48.90
2018-10-16T07:54:12.969Z,52.20
2018-10-16T07:55:12.918Z,55.60
2018-10-16T07:56:12.886Z,58.30
2018-10-16T07:57:12.949Z,53.40
2018-10-16T07:58:12.831Z,57.50
2018-10-16T07:59:12.800Z,49.50
2018-10-16T08:00:12.758Z,48.00
2018-10-16T08:01:12.726Z,55.60
2018-10-16T08:02:12.702Z,52.80
2018-10-16T08:03:12.665Z,50.80
2018-10-16T08:04:12.642Z,48.60
2018-10-16T08:05:12.611Z,61.20
2018-10-16T08:06:12.569Z,45.40
2018-10-16T08:07:12.565Z,57.80
2018-10-16T08:08:12.505Z,67.50
2018-10-16T08:09:12.500Z,52.30
2018-10-16T08:10:12.443Z,47.00
2018-10-16T08:11:12.455Z,48.80
2018-10-16T08:12:12.379Z,66.80
2018-10-16T08:13:12.348Z,53.90
2018-10-16T08:14:12.319Z,52.20
2018-10-16T08:15:12.293Z,57.10
2018-10-16T08:16:12.252Z,52.20
2018-10-16T08:17:12.314Z,51.00
2018-10-16T08:18:12.193Z,44.80
2018-10-16T08:19:12.160Z,60.30
2018-10-16T08:20:12.141Z,43.50
2018-10-16T08:21:12.098Z,57.80
2018-10-16T08:22:12.069Z,59.20
2018-10-16T08:23:12.045Z,63.80
2018-10-16T08:24:12.000Z,91.20
2018-10-16T08:25:11.983Z,81.50
2018-10-16T08:26:11.951Z,70.90
2018-10-16T08:27:11.909Z,72.70
2018-10-16T08:28:11.879Z,60.80
2018-10-16T08:29:11.861Z,61.40
2018-10-16T08:30:11.995Z,61.50
2018-10-16T08:31:11.785Z,64.00
2018-10-16T08:32:11.755Z,47.80
2018-10-16T08:33:11.728Z,49.40
2018-10-16T08:34:11.707Z,51.60
2018-10-16T08:35:11.673Z,59.90
2018-10-16T08:36:11.717Z,57.00
2018-10-16T08:37:11.646Z,47.20
2018-10-16T08:38:11.592Z,67.70
2018-10-16T08:39:11.535Z,50.90
2018-10-16T08:40:11.518Z,50.80
2018-10-16T08:41:11.481Z,59.20
2018-10-16T08:42:11.445Z,72.40
2018-10-16T08:43:11.417Z,70.10
2018-10-16T08:44:11.388Z,65.50
2018-10-16T08:45:11.359Z,66.00
2018-10-16T08:46:11.324Z,69.90
2018-10-16T08:47:11.292Z,68.80
2018-10-16T08:48:11.265Z,56.60
2018-10-16T08:49:11.242Z,65.40
2018-10-16T08:50:11.229Z,56.30
2018-10-16T08:51:11.174Z,63.40
2018-10-16T08:52:11.143Z,74.20
2018-10-16T08:53:11.111Z,70.00
2018-10-16T08:54:11.079Z,66.70
2018-10-16T08:55:11.053Z,59.40
2018-10-16T08:56:11.022Z,54.50
2018-10-16T08:57:10.992Z,57.90
2018-10-16T08:58:10.956Z,69.50
2018-10-16T08:59:10.925Z,54.30
2018-10-16T09:00:10.896Z,65.20
2018-10-16T09:01:10.875Z,60.80
2018-10-16T09:02:10.841Z,65.60
2018-10-16T09:03:10.806Z,59.90
2018-10-16T09:04:10.777Z,50.20
2018-10-16T09:05:10.749Z,61.60
2018-10-16T09:06:10.732Z,66.30
2018-10-16T09:07:10.682Z,66.70
2018-10-16T09:08:10.672Z,55.90
2018-10-16T09:09:10.628Z,57.20
2018-10-16T09:10:10.595Z,59.10
2018-10-16T09:11:10.575Z,68.00
2018-10-16T09:12:10.544Z,55.80
2018-10-16T09:13:10.564Z,62.70
2018-10-16T09:14:10.552Z,55.90
2018-10-16T09:15:10.445Z,46.90
2018-10-16T09:16:10.430Z,55.50
2018-10-16T09:17:10.389Z,43.40
2018-10-16T09:18:10.356Z,53.10
2018-10-16T09:19:10.337Z,56.30
2018-10-16T09:20:10.300Z,45.90
2018-10-16T09:21:10.267Z,42.90
2018-10-16T09:22:10.253Z,56.80
2018-10-16T09:23:10.212Z,47.10
2018-10-16T09:24:10.175Z,49.40
2018-10-16T09:25:10.215Z,51.60
2018-10-16T09:26:10.119Z,56.20
2018-10-16T09:27:10.094Z,46.90
2018-10-16T09:28:10.059Z,49.00
2018-10-16T09:29:10.047Z,45.60
2018-10-16T09:30:09.998Z,43.80
2018-10-16T09:31:10.071Z,46.40
2018-10-16T09:32:09.950Z,53.60
2018-10-16T09:33:09.916Z,52.80
2018-10-16T09:34:09.883Z,59.60
2018-10-16T09:35:09.857Z,60.10
2018-10-16T09:36:09.823Z,42.10
2018-10-16T09:37:09.810Z,59.50
2018-10-16T09:38:09.838Z,47.80
2018-10-16T09:39:09.735Z,50.40
2018-10-16T09:40:09.706Z,55.40
2018-10-16T09:41:09.677Z,46.10
2018-10-16T09:42:09.657Z,45.10
2018-10-16T09:43:09.622Z,46.60
2018-10-16T09:44:09.589Z,70.00
2018-10-16T09:45:09.560Z,40.50
2018-10-16T09:46:09.531Z,53.50
2018-10-16T09:47:09.506Z,50.80
2018-10-16T09:48:09.472Z,47.60
2018-10-16T09:49:09.445Z,56.50
2018-10-16T09:50:09.413Z,54.80
2018-10-16T09:51:09.384Z,52.50
2018-10-16T09:52:09.365Z,46.50
2018-10-16T09:53:09.326Z,44.40
2018-10-16T09:54:09.298Z,53.20
2018-10-16T09:55:09.269Z,48.70
2018-10-16T09:56:09.244Z,38.80
2018-10-16T09:57:09.229Z,56.60
2018-10-16T09:58:09.183Z,49.00
2018-10-16T09:59:09.166Z,56.00
2018-10-16T10:00:09.129Z,56.20
2018-10-16T10:01:09.096Z,41.60
2018-10-16T10:02:09.067Z,40.50
2018-10-16T10:03:09.049Z,48.50
2018-10-16T10:04:09.019Z,50.80
2018-10-16T10:05:08.980Z,55.40
2018-10-16T10:06:08.954Z,45.10
2018-10-16T10:07:08.921Z,51.50
2018-10-16T10:08:08.902Z,52.70
2018-10-16T10:09:08.866Z,62.20
2018-10-16T10:10:08.833Z,47.20
2018-10-16T10:11:08.922Z,59.80
2018-10-16T10:12:08.778Z,46.60
2018-10-16T10:13:08.754Z,45.70
2018-10-16T10:14:08.723Z,46.20
2018-10-16T10:15:08.690Z,51.30
2018-10-16T10:16:08.663Z,55.10
2018-10-16T10:17:08.634Z,57.20
2018-10-16T10:18:08.617Z,58.50
2018-10-16T10:19:08.575Z,54.10
2018-10-16T10:20:08.547Z,65.50
2018-10-16T10:21:08.521Z,56.80
2018-10-16T10:22:08.491Z,54.80
2018-10-16T10:23:08.479Z,48.20
2018-10-16T10:24:08.444Z,45.70
2018-10-16T10:25:08.426Z,48.50
2018-10-16T10:26:08.377Z,55.50
2018-10-16T10:27:08.353Z,51.90
2018-10-16T10:28:08.339Z,48.70
2018-10-16T10:29:08.297Z,43.80
2018-10-16T10:30:08.271Z,52.60
2018-10-16T10:31:08.244Z,44.10
2018-10-16T10:32:08.206Z,48.00
2018-10-16T10:33:08.177Z,58.80
2018-10-16T10:34:08.162Z,50.20
2018-10-16T10:35:08.122Z,49.30
2018-10-16T10:36:08.140Z,52.50
2018-10-16T10:37:08.069Z,42.70
2018-10-16T10:38:08.040Z,52.30
2018-10-16T10:39:08.013Z,49.10
2018-10-16T10:40:07.978Z,53.50
2018-10-16T10:41:07.950Z,54.90
2018-10-16T10:42:07.955Z,46.70
2018-10-16T10:43:07.894Z,45.00
2018-10-16T10:44:07.876Z,51.40
2018-10-16T10:45:07.837Z,52.60
2018-10-16T10:46:07.811Z,46.60
2018-10-16T10:47:07.780Z,47.00
2018-10-16T10:48:07.753Z,56.30
2018-10-16T10:49:07.739Z,45.60
2018-10-16T10:50:07.799Z,48.00
2018-10-16T10:51:08.072Z,41.60
2018-10-16T10:52:07.640Z,45.40
2018-10-16T10:53:07.615Z,41.80
2018-10-16T10:54:07.592Z,46.50
2018-10-16T10:55:07.553Z,42.10
2018-10-16T10:56:07.530Z,39.60
2018-10-16T10:57:07.727Z,44.00
2018-10-16T10:58:07.470Z,51.00
2018-10-16T10:59:07.457Z,45.60
2018-10-16T11:00:07.420Z,41.30
2018-10-16T11:01:07.386Z,51.40
2018-10-16T11:02:07.360Z,42.40
2018-10-16T11:03:07.398Z,39.80
2018-10-16T11:04:07.323Z,35.90
2018-10-16T11:05:07.271Z,38.60
2018-10-16T11:06:07.250Z,35.50
2018-10-16T11:07:07.218Z,38.50
2018-10-16T11:08:07.190Z,36.40
2018-10-16T11:09:07.233Z,38.50
2018-10-16T11:10:07.143Z,35.20
2018-10-16T11:11:07.105Z,39.90
2018-10-16T11:12:07.079Z,34.90
2018-10-16T11:13:07.052Z,39.20
2018-10-16T11:14:07.022Z,40.00
2018-10-16T11:15:07.017Z,40.10
2018-10-16T11:16:06.967Z,31.70
2018-10-16T11:17:06.945Z,33.90
2018-10-16T11:18:06.909Z,31.60
2018-10-16T11:19:06.887Z,40.60
2018-10-16T11:20:06.899Z,39.50
2018-10-16T11:21:06.883Z,28.00
2018-10-16T11:22:06.832Z,29.60
2018-10-16T11:23:06.781Z,32.80
2018-10-16T11:24:06.766Z,31.60
2018-10-16T11:25:06.752Z,33.00
2018-10-16T11:26:06.733Z,36.20
2018-10-16T11:27:06.731Z,34.60
2018-10-16T11:28:06.634Z,34.00
2018-10-16T11:29:06.632Z,35.30
2018-10-16T11:30:06.621Z,34.10
2018-10-16T11:31:06.580Z,37.10
2018-10-16T11:32:06.537Z,29.60
2018-10-16T11:33:06.542Z,37.80
2018-10-16T11:34:06.482Z,32.50
2018-10-16T11:35:06.439Z,40.10
2018-10-16T11:36:06.421Z,35.00
2018-10-16T11:37:06.458Z,34.20
2018-10-16T11:38:06.357Z,38.30
2018-10-16T11:39:06.346Z,30.80
2018-10-16T11:40:06.300Z,41.40
2018-10-16T11:41:06.282Z,33.70
2018-10-16T11:42:06.248Z,41.80
2018-10-16T11:43:06.217Z,37.50
2018-10-16T11:44:06.189Z,28.10
2018-10-16T11:45:06.167Z,28.90
2018-10-16T11:46:06.145Z,34.30
2018-10-16T11:47:06.105Z,35.00
2018-10-16T11:48:06.080Z,32.30
2018-10-16T11:49:06.050Z,26.10
2018-10-16T11:50:06.081Z,36.00
2018-10-16T11:51:06.001Z,30.40
2018-10-16T11:52:06.020Z,32.60
2018-10-16T11:53:05.939Z,25.70
2018-10-16T11:54:05.917Z,29.10
2018-10-16T11:55:05.884Z,36.50
2018-10-16T11:56:05.893Z,28.10
2018-10-16T11:57:05.830Z,38.40
2018-10-16T11:58:05.803Z,38.40
2018-10-16T11:59:05.829Z,28.60
2018-10-16T12:00:05.747Z,31.60
2018-10-16T12:01:05.719Z,28.70
2018-10-16T12:02:05.776Z,35.40
2018-10-16T12:03:05.667Z,34.80
2018-10-16T12:04:05.635Z,29.70
2018-10-16T12:05:05.613Z,29.50
2018-10-16T12:06:05.652Z,32.80
2018-10-16T12:07:05.627Z,25.20
2018-10-16T12:08:05.616Z,24.70
2018-10-16T12:09:05.498Z,24.20
2018-10-16T12:10:05.470Z,27.80
2018-10-16T12:11:05.461Z,18.90
2018-10-16T12:12:05.427Z,19.80
2018-10-16T12:13:05.499Z,22.20
2018-10-16T12:14:05.441Z,32.00
2018-10-16T12:15:05.332Z,23.90
2018-10-16T12:16:05.306Z,25.70
2018-10-16T12:17:05.307Z,25.90
2018-10-16T12:18:05.254Z,29.30
2018-10-16T12:19:05.294Z,24.70
2018-10-16T12:20:05.285Z,28.70
2018-10-16T12:21:05.235Z,29.50
2018-10-16T12:22:05.144Z,32.20
2018-10-16T12:23:05.131Z,25.00
2018-10-16T12:24:05.105Z,29.50
2018-10-16T12:25:05.100Z,26.60
2018-10-16T12:26:05.035Z,23.60
2018-10-16T12:27:05.011Z,29.10
2018-10-16T12:28:04.994Z,28.10
2018-10-16T12:29:05.020Z,23.20
2018-10-16T12:30:04.926Z,23.50
2018-10-16T12:31:04.955Z,24.70
2018-10-16T12:32:04.883Z,29.50
2018-10-16T12:33:04.883Z,27.90
2018-10-16T12:34:04.826Z,20.90
2018-10-16T12:35:04.796Z,24.10
2018-10-16T12:36:04.760Z,26.40
2018-10-16T12:37:04.752Z,20.60
2018-10-16T12:38:04.719Z,22.60
2018-10-16T12:39:04.716Z,20.60
2018-10-16T12:40:04.679Z,22.50
2018-10-16T12:41:04.634Z,20.00
2018-10-16T12:42:04.639Z,19.40
2018-10-16T12:43:04.648Z,19.90
2018-10-16T12:44:04.546Z,17.20
2018-10-16T12:45:04.587Z,15.70
2018-10-16T12:46:04.568Z,15.30
2018-10-16T12:47:04.533Z,17.70
2018-10-16T12:48:04.483Z,14.30
2018-10-16T12:49:04.408Z,17.40
2018-10-16T12:50:04.428Z,19.30
2018-10-16T12:51:04.391Z,20.00
2018-10-16T12:52:04.326Z,16.40